03:43
Airports
History
Links
Donate
Help keep this website running!
PayPal
Bitcoin
This page is community maintained. The information is intended for PC simulator navigation or reference.
Always use approved charts for navigation.
CYVG
VERMILION
VERMILION (CYVG)
Vermilion, Alberta, Canada
(U)
Lat/Lng:53° 21' 21.5" N / 110° 49' 24.01" W
53.355973 / -110.823335
Elevation:2025'ft / 617mMSL
ID / ICAO:CYVG
Runways:1
Longest:10-28
Asphalt 966m / 3,168ft
Nearby Weather03:00 GMT 2017-12-13
Nearby weather at CYLL, LLOYDMINSTER located 31.0 nautical miles from CYVG
Altimeter: 29.94
Visibility: 15.0 statute miles
Wind: 15 knots (from 310°)
Temp: 2°c / 36°f
Humidity: 74.7%

METAR: CYLL 130300Z 31015G21KT 15SM FEW250 02/M02 A2994 RMK CI1 SLP172

(Powered by phpweather)
Airport Radio Frequencies
CTAF: 122.8
Nearby VORs <50NM
Nearby NDBs
Runway 10 / 28
Dimensions:965.6 x 22.9m 3168' x 75'ft
Surface:Asphalt
Edge Lights:Low intensity
Runway 10 [A]Runway 28 [B]
Heading:118°TH 298°TH
Lat:
Lng:
53° 21' 29"N
110° 49' 46.99"W
53° 21' 14"N
110° 49' 1.02"W
User Notes and Comments
53° 21' 21.5" N / 110° 49' 24.01" W
Distance To
Airport ID:
Nearby Airports
(U) LLOYDMINSTER 31.0 NM
CYLL ( WX ) E 95°
4 WAINWRIGHT CAMP WAINWRIGHT FIELD 36.4 NM
CFF7 S 185°
(U) Elk Point 37.2 NM
EJ6 N
(U) WAINWRIGHT FIELD 21 38.1 NM
CFP7 SSW 197°
(U) WAINWRIGHT 38.7 NM
CYWV S 182°
(U) Viking 46.6 NM
EE8 WSW 247°
(U) St Paul 49.6 NM
EW3 NNW 332°
VFR Chart
Flight Planning at SkyVector.com